Time;durP1;ratioP1;P1;durP2;ratioP2;P2;SDS_P1;SDS_P2;PMS_P1;PMS_P2;Temp;Humidity;BMP_temperature;BMP_pressure;BME280_temperature;BME280_humidity;BME280_pressure;Samples;Min_cycle;Max_cycle;Signal;HPM_P1;HPM_P2
2024/01/15 00:00:40;;;;;;;0.70;0.70;;;2.00;99.90;1.00;97480;;;;568742;248;24098;-81
2024/01/15 00:03:09;;;;;;;0.70;0.70;;;2.00;99.90;0.90;97486;;;;568866;248;24104;-80
2024/01/15 00:05:36;;;;;;;0.90;0.67;;;2.00;99.90;0.90;97472;;;;568906;248;24130;-80
2024/01/15 00:08:07;;;;;;;0.60;0.60;;;1.90;99.90;0.80;97471;;;;568904;248;25154;-80
2024/01/15 00:10:32;;;;;;;1.07;1.07;;;1.80;99.90;0.70;97477;;;;564534;248;24113;-81
2024/01/15 00:13:01;;;;;;;1.13;0.90;;;1.70;99.90;0.70;97464;;;;568898;248;24117;-80
2024/01/15 00:15:30;;;;;;;0.60;0.60;;;1.70;99.90;0.60;97470;;;;568831;248;24131;-80
2024/01/15 00:17:57;;;;;;;3.00;0.90;;;1.60;99.90;0.50;97462;;;;568890;248;25145;-79
2024/01/15 00:20:25;;;;;;;0.80;0.80;;;1.60;99.90;0.50;97463;;;;568832;248;24124;-80
2024/01/15 00:22:53;;;;;;;1.60;0.80;;;1.50;99.90;0.40;97447;;;;568854;248;24145;-80
2024/01/15 00:25:21;;;;;;;1.33;0.83;;;1.50;99.90;0.40;97451;;;;568917;248;24110;-80
2024/01/15 00:27:49;;;;;;;1.30;1.23;;;1.40;99.90;0.30;97447;;;;568459;248;24103;-81
2024/01/15 00:30:17;;;;;;;1.37;1.27;;;1.40;99.90;0.30;97441;;;;568800;247;24072;-77
2024/01/15 00:32:45;;;;;;;1.47;1.37;;;1.30;99.90;0.30;97443;;;;570212;248;24131;-81
2024/01/15 00:35:13;;;;;;;1.67;1.57;;;1.30;99.90;0.20;97428;;;;569725;248;24071;-77
2024/01/15 00:37:41;;;;;;;1.50;1.40;;;1.30;99.90;0.20;97415;;;;569535;248;24122;-77
2024/01/15 00:40:11;;;;;;;1.80;1.37;;;1.20;99.90;0.20;97424;;;;569428;248;24104;-78
2024/01/15 00:42:36;;;;;;;1.70;1.60;;;1.20;99.90;0.20;97412;;;;569337;248;24106;-79
2024/01/15 00:45:08;;;;;;;2.70;1.47;;;1.20;99.90;0.20;97411;;;;569378;248;24114;-79
2024/01/15 00:47:32;;;;;;;2.53;1.60;;;1.20;99.90;0.20;97395;;;;569294;248;24092;-78
2024/01/15 00:50:00;;;;;;;1.70;1.60;;;1.20;99.90;0.20;97396;;;;569058;248;24087;-79
2024/01/15 00:52:28;;;;;;;1.47;1.33;;;1.20;99.90;0.20;97401;;;;571858;248;24082;-79
2024/01/15 00:54:56;;;;;;;1.40;1.27;;;1.20;99.90;0.30;97406;;;;569102;248;24137;-80
2024/01/15 00:57:24;;;;;;;1.57;1.23;;;1.20;99.90;0.30;97395;;;;569087;248;24090;-80
2024/01/15 00:59:55;;;;;;;1.70;1.27;;;1.30;99.90;0.40;97397;;;;568684;248;24156;-80
2024/01/15 01:02:20;;;;;;;1.47;1.33;;;1.40;99.90;0.40;97391;;;;568437;248;24098;-80
2024/01/15 01:04:47;;;;;;;2.10;1.20;;;1.40;99.90;0.50;97391;;;;569082;248;24097;-79
2024/01/15 01:07:15;;;;;;;5.87;1.30;;;1.50;99.90;0.40;97388;;;;568901;248;24135;-78
2024/01/15 01:09:45;;;;;;;1.23;1.13;;;1.50;99.90;0.50;97384;;;;568862;248;24125;-80
2024/01/15 01:12:12;;;;;;;1.33;0.87;;;1.50;99.90;0.50;97375;;;;569090;248;24106;-79
2024/01/15 01:14:40;;;;;;;1.70;1.47;;;1.50;99.90;0.50;97376;;;;569310;248;24107;-79
2024/01/15 01:17:08;;;;;;;2.23;1.13;;;1.50;99.90;0.50;97363;;;;569307;248;24166;-78
2024/01/15 01:19:36;;;;;;;1.10;0.67;;;1.50;99.90;0.50;97359;;;;569840;248;24118;-78
2024/01/15 01:22:05;;;;;;;1.07;1.03;;;1.50;99.90;0.40;97362;;;;569556;248;24114;-78
2024/01/15 01:24:32;;;;;;;1.77;1.17;;;1.50;99.90;0.40;97360;;;;569491;248;24234;-77
2024/01/15 01:27:01;;;;;;;1.50;1.37;;;1.40;99.90;0.40;97359;;;;569156;248;24154;-78
2024/01/15 01:29:29;;;;;;;1.40;1.30;;;1.40;99.90;0.30;97359;;;;568745;248;24113;-78
2024/01/15 01:31:57;;;;;;;1.10;1.10;;;1.40;99.90;0.30;97353;;;;569188;248;25141;-78
2024/01/15 01:34:24;;;;;;;1.03;1.00;;;1.30;99.90;0.30;97355;;;;568882;248;24120;-80
2024/01/15 01:36:52;;;;;;;1.10;1.10;;;1.30;99.90;0.20;97345;;;;568851;248;24177;-78
2024/01/15 01:39:21;;;;;;;1.30;1.20;;;1.20;99.90;0.20;97344;;;;568799;248;24116;-80
2024/01/15 01:41:49;;;;;;;1.43;1.40;;;1.20;99.90;0.20;97330;;;;569064;246;24128;-79
2024/01/15 01:44:18;;;;;;;1.07;1.00;;;1.20;99.90;0.20;97327;;;;570172;248;24097;-79
2024/01/15 01:46:45;;;;;;;1.70;1.60;;;1.20;99.90;0.20;97329;;;;569780;248;24126;-79
2024/01/15 01:49:13;;;;;;;2.40;1.60;;;1.20;99.90;0.20;97324;;;;569580;248;24086;-77
2024/01/15 01:51:41;;;;;;;1.85;1.40;;;1.20;99.90;0.20;97329;;;;564462;248;35215;-77
2024/01/15 01:54:11;;;;;;;1.47;1.07;;;1.20;99.90;0.30;97319;;;;569318;248;24151;-79
2024/01/15 01:56:38;;;;;;;1.10;1.10;;;1.30;99.90;0.30;97315;;;;569194;248;24109;-78
2024/01/15 01:59:06;;;;;;;1.37;1.27;;;1.30;99.90;0.30;97306;;;;569285;248;24118;-80
2024/01/15 02:01:34;;;;;;;1.00;1.00;;;1.30;99.90;0.40;97306;;;;568746;248;24128;-78
2024/01/15 02:04:02;;;;;;;0.87;0.87;;;1.40;99.90;0.40;97314;;;;568629;248;24144;-79
2024/01/15 02:06:30;;;;;;;1.40;1.20;;;1.40;99.90;0.40;97295;;;;568819;248;24107;-79
2024/01/15 02:08:57;;;;;;;0.97;0.73;;;1.50;99.90;0.50;97301;;;;568684;248;24106;-80
2024/01/15 02:11:25;;;;;;;1.42;1.42;;;1.50;99.90;0.50;97292;;;;563693;248;35153;-79
2024/01/15 02:13:54;;;;;;;1.33;1.27;;;1.50;99.90;0.50;97287;;;;577415;248;24170;-80
2024/01/15 02:16:26;;;;;;;0.90;0.90;;;1.50;99.90;0.50;97281;;;;568664;248;24146;-80
2024/01/15 02:18:50;;;;;;;1.03;1.03;;;1.50;99.90;0.60;97285;;;;571169;248;24114;-80
2024/01/15 02:21:18;;;;;;;1.03;0.90;;;1.60;99.90;0.60;97282;;;;568480;248;24081;-80
2024/01/15 02:23:46;;;;;;;1.83;0.80;;;1.60;99.90;0.60;97271;;;;568419;248;24091;-80
2024/01/15 02:26:14;;;;;;;0.70;0.70;;;1.60;99.90;0.60;97274;;;;577073;245;24112;-80
2024/01/15 02:28:44;;;;;;;1.13;1.13;;;1.60;99.90;0.50;97262;;;;568347;248;24095;-80
2024/01/15 02:31:09;;;;;;;1.47;1.37;;;1.60;99.90;0.50;97254;;;;576642;248;24099;-79
2024/01/15 02:33:37;;;;;;;0.80;0.80;;;1.50;99.90;0.50;97239;;;;568828;248;24187;-78
2024/01/15 02:36:05;;;;;;;1.77;1.00;;;1.50;99.90;0.40;97239;;;;568977;248;24102;-79
2024/01/15 02:38:33;;;;;;;2.37;1.03;;;1.50;99.90;0.40;97227;;;;568977;248;24186;-79
2024/01/15 02:41:01;;;;;;;2.20;1.20;;;1.40;99.90;0.30;97226;;;;568890;248;24101;-78
2024/01/15 02:43:29;;;;;;;2.35;1.85;;;1.20;99.90;0.40;97219;;;;563855;248;35264;-76
2024/01/15 02:45:57;;;;;;;1.80;1.70;;;1.40;99.90;0.30;97220;;;;568755;248;24167;-79
2024/01/15 02:48:25;;;;;;;1.42;1.42;;;1.40;99.90;0.30;97216;;;;563851;248;35233;-80
2024/01/15 02:50:53;;;;;;;2.00;1.80;;;1.30;99.90;0.30;97211;;;;563504;248;45113;-80
2024/01/15 02:53:21;;;;;;;1.33;1.33;;;1.30;99.90;0.30;97205;;;;568566;246;24099;-79
2024/01/15 02:55:49;;;;;;;1.90;1.17;;;1.30;99.90;0.20;97196;;;;569854;248;24101;-78
2024/01/15 02:58:17;;;;;;;0.90;0.90;;;1.30;99.90;0.20;97187;;;;569301;248;25155;-78
2024/01/15 03:00:46;;;;;;;1.13;1.13;;;1.10;99.90;0.10;97194;;;;569250;248;24094;-78
2024/01/15 03:03:14;;;;;;;0.97;0.97;;;1.10;99.90;0.00;97187;;;;569429;248;24162;-79
2024/01/15 03:05:42;;;;;;;1.33;1.27;;;1.10;99.90;0.00;97191;;;;569293;248;24130;-80
2024/01/15 03:08:10;;;;;;;1.37;1.27;;;1.00;99.90;0.00;97193;;;;572054;248;24079;-80
2024/01/15 03:10:38;;;;;;;1.87;1.73;;;1.00;99.90;0.00;97170;;;;569307;248;24126;-79
2024/01/15 03:13:06;;;;;;;1.70;1.60;;;1.10;99.90;0.10;97170;;;;569117;248;24083;-80
2024/01/15 03:15:34;;;;;;;2.37;2.17;;;1.10;99.90;0.10;97161;;;;569030;248;24086;-80
2024/01/15 03:18:02;;;;;;;2.07;1.97;;;1.10;99.90;0.10;97154;;;;569032;248;24100;-81
2024/01/15 03:20:30;;;;;;;2.60;2.40;;;1.10;99.90;0.10;97145;;;;569037;248;24099;-79
2024/01/15 03:22:58;;;;;;;2.07;1.90;;;1.10;99.90;0.10;97153;;;;569090;248;24113;-78
2024/01/15 03:25:25;;;;;;;1.97;1.87;;;1.20;99.90;0.10;97135;;;;569066;248;24106;-77
2024/01/15 03:27:53;;;;;;;2.30;1.93;;;1.10;99.90;0.10;97134;;;;568710;248;24124;-78
2024/01/15 03:30:21;;;;;;;2.97;2.43;;;1.20;99.90;0.10;97141;;;;568872;248;24197;-78
2024/01/15 03:32:49;;;;;;;1.97;1.87;;;1.10;99.90;0.10;97135;;;;568416;248;24112;-79
2024/01/15 03:35:20;;;;;;;2.37;2.17;;;1.10;99.90;0.10;97129;;;;568827;248;24136;-79
2024/01/15 03:37:45;;;;;;;2.77;2.47;;;1.10;99.90;0.10;97137;;;;568716;248;24126;-78
2024/01/15 03:40:13;;;;;;;3.17;1.97;;;1.10;99.90;0.10;97126;;;;568745;248;24124;-79
2024/01/15 03:42:41;;;;;;;2.20;2.00;;;1.10;99.90;0.10;97125;;;;563839;248;46201;-77
2024/01/15 03:45:09;;;;;;;1.13;1.03;;;1.10;99.90;0.10;97123;;;;568744;248;24129;-78
2024/01/15 03:47:37;;;;;;;1.33;1.33;;;1.10;99.90;0.10;97118;;;;568790;248;24146;-79
2024/01/15 03:50:05;;;;;;;1.50;1.40;;;1.10;99.90;0.10;97120;;;;568787;248;24143;-78
2024/01/15 03:52:32;;;;;;;1.10;1.10;;;1.10;99.90;0.10;97115;;;;568830;248;24188;-80
2024/01/15 03:55:04;;;;;;;1.73;1.63;;;1.10;99.90;0.10;97114;;;;568764;248;24122;-78
2024/01/15 03:57:29;;;;;;;2.53;1.83;;;1.10;99.90;0.10;97109;;;;571352;248;24211;-79
2024/01/15 03:59:57;;;;;;;2.23;1.93;;;1.10;99.90;0.10;97104;;;;568762;248;24116;-79
2024/01/15 04:02:25;;;;;;;3.13;2.23;;;1.20;99.90;0.10;97101;;;;569003;248;24143;-79
2024/01/15 04:04:53;;;;;;;3.07;2.30;;;1.10;99.90;0.10;97097;;;;568811;246;24158;-80
2024/01/15 04:07:21;;;;;;;2.23;2.07;;;1.10;99.90;0.10;97088;;;;569808;248;24138;-79
2024/01/15 04:09:49;;;;;;;2.40;2.30;;;1.10;99.90;0.10;97090;;;;569306;248;24130;-77
2024/01/15 04:12:17;;;;;;;2.20;2.10;;;1.10;99.90;0.10;97076;;;;569233;248;24146;-79
2024/01/15 04:14:46;;;;;;;2.43;2.23;;;1.10;99.90;0.10;97074;;;;569087;248;24083;-79
2024/01/15 04:17:14;;;;;;;2.70;2.50;;;1.10;99.90;0.10;97077;;;;569090;248;24167;-76
2024/01/15 04:19:43;;;;;;;2.57;2.37;;;1.10;99.90;0.10;97068;;;;568959;248;24097;-80
2024/01/15 04:22:10;;;;;;;2.17;2.07;;;1.10;99.90;0.10;97068;;;;568786;248;25152;-79
2024/01/15 04:24:37;;;;;;;2.20;2.07;;;1.10;99.90;0.10;97069;;;;568848;248;24114;-77
2024/01/15 04:27:08;;;;;;;2.23;2.13;;;1.10;99.90;0.10;97060;;;;568632;248;24110;-79
2024/01/15 04:29:33;;;;;;;3.70;2.23;;;1.10;99.90;0.10;97056;;;;577397;248;24094;-79
2024/01/15 04:32:01;;;;;;;2.03;1.93;;;1.10;99.90;0.10;97056;;;;569048;248;24121;-79
2024/01/15 04:34:29;;;;;;;2.37;2.10;;;1.10;99.90;0.20;97056;;;;568796;248;24153;-80
2024/01/15 04:37:00;;;;;;;1.90;1.70;;;1.20;99.90;0.20;97055;;;;569012;248;24093;-78
2024/01/15 04:39:25;;;;;;;2.43;2.17;;;1.20;99.90;0.20;97042;;;;568847;248;24157;-76
2024/01/15 04:41:53;;;;;;;2.07;1.93;;;1.20;99.90;0.20;97045;;;;568961;248;24093;-80
2024/01/15 04:44:21;;;;;;;2.40;2.17;;;1.20;99.90;0.20;97042;;;;568775;248;24160;-79
2024/01/15 04:46:52;;;;;;;2.87;2.13;;;1.20;99.90;0.20;97045;;;;568744;248;24168;-77
2024/01/15 04:49:17;;;;;;;2.20;2.00;;;1.20;99.90;0.20;97040;;;;568594;248;24111;-75
2024/01/15 04:51:45;;;;;;;2.37;2.03;;;1.20;99.90;0.20;97040;;;;568775;248;24125;-77
2024/01/15 04:54:17;;;;;;;2.60;2.40;;;1.20;99.90;0.20;97036;;;;568810;248;25163;-76
2024/01/15 04:56:41;;;;;;;2.10;2.00;;;1.20;99.90;0.10;97040;;;;568516;248;25136;-77
2024/01/15 04:59:09;;;;;;;2.40;2.20;;;1.20;99.90;0.10;97034;;;;571544;248;24131;-78
2024/01/15 05:01:37;;;;;;;2.17;2.07;;;1.10;99.90;0.10;97038;;;;568782;248;24078;-77
2024/01/15 05:04:05;;;;;;;2.53;2.30;;;1.20;99.90;0.10;97027;;;;571560;248;24103;-76
2024/01/15 05:06:32;;;;;;;2.57;2.47;;;1.10;99.90;0.10;97027;;;;568442;248;24116;-77
2024/01/15 05:09:01;;;;;;;2.20;2.10;;;1.10;99.90;0.10;97022;;;;568340;248;24131;-77
2024/01/15 05:11:29;;;;;;;1.73;1.63;;;1.10;99.90;0.10;97021;;;;568483;248;25176;-76
2024/01/15 05:13:57;;;;;;;2.13;1.93;;;1.10;99.90;0.10;97018;;;;568465;248;24128;-77
2024/01/15 05:16:25;;;;;;;1.90;1.80;;;1.00;99.90;0.10;97021;;;;568871;246;24103;-79
2024/01/15 05:18:53;;;;;;;1.77;1.67;;;1.00;99.90;0.00;97015;;;;572864;248;24082;-80
2024/01/15 05:21:21;;;;;;;2.00;1.87;;;1.00;99.90;0.10;97017;;;;569526;248;24134;-77
2024/01/15 05:23:49;;;;;;;1.90;1.73;;;1.00;99.90;0.10;97015;;;;569728;248;25140;-80
2024/01/15 05:26:16;;;;;;;1.80;1.70;;;1.10;99.90;0.10;97011;;;;569547;248;24101;-79
2024/01/15 05:28:44;;;;;;;2.00;1.90;;;1.10;99.90;0.10;97021;;;;569753;248;24086;-79
2024/01/15 05:31:15;;;;;;;2.40;1.90;;;1.10;99.90;0.00;97018;;;;569654;248;24060;-80
2024/01/15 05:33:40;;;;;;;1.70;1.60;;;1.00;99.90;0.00;97014;;;;569574;248;24144;-78
2024/01/15 05:36:09;;;;;;;2.17;2.07;;;0.90;99.90;-0.10;97018;;;;569429;248;24116;-79
2024/01/15 05:38:37;;;;;;;2.10;2.00;;;1.00;99.90;-0.10;97014;;;;569059;248;24159;-80
2024/01/15 05:41:08;;;;;;;2.10;1.80;;;0.90;99.90;-0.10;97005;;;;569563;248;24090;-80
2024/01/15 05:43:32;;;;;;;1.90;1.70;;;0.90;99.90;-0.10;97007;;;;569626;248;24132;-80
2024/01/15 05:46:00;;;;;;;2.63;1.67;;;0.90;99.90;-0.10;97008;;;;572633;248;24145;-79
2024/01/15 05:48:28;;;;;;;2.70;1.80;;;0.90;99.90;-0.20;96998;;;;569752;248;24087;-79
2024/01/15 05:50:56;;;;;;;1.50;1.33;;;0.80;99.90;-0.30;97006;;;;569998;248;24079;-81
2024/01/15 05:53:24;;;;;;;2.80;1.70;;;0.70;99.90;-0.40;97015;;;;572533;248;24083;-76
2024/01/15 05:55:56;;;;;;;1.40;1.27;;;0.60;99.90;-0.50;96999;;;;570069;248;24125;-80
2024/01/15 05:58:20;;;;;;;1.37;1.13;;;0.50;99.90;-0.50;97008;;;;578291;248;24137;-79
2024/01/15 06:00:49;;;;;;;3.47;1.70;;;0.40;99.90;-0.60;97014;;;;569978;248;24168;-80
2024/01/15 06:03:16;;;;;;;2.97;1.70;;;0.40;99.90;-0.60;97011;;;;570113;248;24147;-80
2024/01/15 06:05:44;;;;;;;4.03;2.43;;;0.40;99.90;-0.60;97016;;;;570136;248;24102;-79
2024/01/15 06:08:15;;;;;;;4.37;2.50;;;0.40;99.90;-0.70;96997;;;;569822;248;24122;-80
2024/01/15 06:10:39;;;;;;;4.07;2.10;;;0.30;99.90;-0.80;96986;;;;572378;248;24224;-81
2024/01/15 06:13:11;;;;;;;1.70;1.57;;;0.20;99.90;-0.90;96983;;;;569712;248;24094;-79
2024/01/15 06:15:38;;;;;;;2.23;1.40;;;0.10;99.90;-1.00;96987;;;;569657;248;24174;-79
2024/01/15 06:18:03;;;;;;;3.70;1.43;;;0.00;99.90;-1.20;96989;;;;568914;248;24097;-79
2024/01/15 06:20:31;;;;;;;2.30;1.73;;;-0.10;99.90;-1.30;96988;;;;572091;248;24136;-79
2024/01/15 06:22:59;;;;;;;6.57;1.80;;;-0.20;99.90;-1.30;96976;;;;569668;248;24148;-80
2024/01/15 06:25:27;;;;;;;3.77;1.90;;;-0.30;99.90;-1.40;96987;;;;569216;248;24102;-77
2024/01/15 06:27:55;;;;;;;3.40;1.97;;;-0.40;99.90;-1.40;96985;;;;569293;246;24169;-78
2024/01/15 06:30:23;;;;;;;5.10;2.20;;;-0.40;99.90;-1.50;96980;;;;570833;248;24108;-77
2024/01/15 06:32:51;;;;;;;4.90;2.10;;;-0.20;99.90;-1.50;96981;;;;570713;248;24151;-80
2024/01/15 06:35:18;;;;;;;3.10;1.93;;;-0.50;99.90;-1.50;96990;;;;569963;248;24098;-77
2024/01/15 06:37:46;;;;;;;4.73;1.70;;;-0.50;99.90;-1.40;96982;;;;569899;248;24091;-80
2024/01/15 06:40:14;;;;;;;5.37;2.47;;;-0.50;99.90;-1.50;96981;;;;570226;248;24070;-81
2024/01/15 06:42:42;;;;;;;4.27;1.93;;;-0.50;99.90;-1.50;96978;;;;569841;248;24090;-77
2024/01/15 06:45:10;;;;;;;4.27;1.60;;;-0.50;99.90;-1.60;96976;;;;570262;248;24101;-76
2024/01/15 06:47:38;;;;;;;4.00;1.90;;;-0.50;99.90;-1.60;96977;;;;569975;248;24119;-78
2024/01/15 06:50:06;;;;;;;4.67;2.60;;;-0.60;99.90;-1.60;96970;;;;569450;248;24070;-77
2024/01/15 06:52:34;;;;;;;3.07;1.60;;;-0.60;99.90;-1.70;96954;;;;569394;248;24151;-77
2024/01/15 06:55:02;;;;;;;9.23;2.10;;;-0.60;99.90;-1.70;96966;;;;569460;248;24119;-77
2024/01/15 06:57:30;;;;;;;4.03;1.50;;;-0.60;99.90;-1.70;96964;;;;569645;248;24096;-79
2024/01/15 06:59:58;;;;;;;5.47;1.80;;;-0.70;99.90;-1.70;96960;;;;569786;248;24101;-80
2024/01/15 07:02:26;;;;;;;3.77;2.00;;;-0.70;99.90;-1.70;96963;;;;569666;248;24072;-80
2024/01/15 07:04:53;;;;;;;3.80;1.90;;;-0.70;99.90;-1.70;96963;;;;569469;248;24084;-79
2024/01/15 07:07:21;;;;;;;3.27;1.87;;;-0.70;99.90;-1.70;96962;;;;568869;248;24117;-78
2024/01/15 07:09:51;;;;;;;5.07;1.87;;;-0.70;99.90;-1.70;96965;;;;569249;248;24102;-79
2024/01/15 07:12:17;;;;;;;6.83;2.23;;;-0.70;99.90;-1.70;96968;;;;568900;248;24111;-76
2024/01/15 07:14:48;;;;;;;4.03;1.93;;;-0.70;99.90;-1.70;96959;;;;571639;248;24111;-75
2024/01/15 07:17:13;;;;;;;4.90;2.50;;;-0.70;99.90;-1.60;96956;;;;568047;248;24084;-76
2024/01/15 07:19:44;;;;;;;6.37;2.20;;;-0.60;99.90;-1.50;96964;;;;568833;248;25136;-75
2024/01/15 07:22:10;;;;;;;6.50;2.83;;;-0.50;99.90;-1.30;96958;;;;568296;248;24109;-77
2024/01/15 07:24:38;;;;;;;8.60;3.55;;;-0.20;99.90;-1.20;96962;;;;564076;248;35454;-77
2024/01/15 07:27:06;;;;;;;0.93;0.93;;;-0.10;99.90;-1.10;96966;;;;568945;248;24099;-79
2024/01/15 07:29:37;;;;;;;1.90;1.63;;;-0.10;99.90;-1.10;96959;;;;577413;248;24097;-78
2024/01/15 07:32:02;;;;;;;2.13;1.90;;;0.00;99.90;-1.00;96958;;;;568091;248;24123;-78
2024/01/15 07:34:33;;;;;;;6.67;3.03;;;0.00;99.90;-1.00;96959;;;;568727;248;24086;-77
2024/01/15 07:37:01;;;;;;;6.63;2.90;;;0.00;99.90;-1.00;96957;;;;568328;248;24124;-76
2024/01/15 07:39:26;;;;;;;4.77;2.87;;;0.00;99.90;-0.90;96953;;;;568653;248;25141;-78
2024/01/15 07:41:54;;;;;;;6.27;3.03;;;0.10;99.90;-0.90;96959;;;;570785;248;24172;-77
2024/01/15 07:44:22;;;;;;;4.37;2.70;;;0.10;99.90;-0.90;96951;;;;570312;248;24089;-77
2024/01/15 07:46:50;;;;;;;3.90;3.20;;;0.20;99.90;-0.80;96940;;;;570077;248;24082;-79
2024/01/15 07:49:21;;;;;;;4.10;2.73;;;0.20;99.90;-0.80;96948;;;;570018;248;24081;-77
2024/01/15 07:51:45;;;;;;;4.63;2.87;;;0.30;99.90;-0.80;96949;;;;569228;248;24076;-79
2024/01/15 07:54:14;;;;;;;4.03;2.83;;;0.30;99.90;-0.70;96945;;;;569816;248;24139;-78
2024/01/15 07:57:00;;;;;;;2.83;2.40;;;0.30;99.90;-0.60;96946;;;;569664;248;24086;-75
2024/01/15 07:59:28;;;;;;;5.03;2.77;;;0.40;99.90;-0.50;96942;;;;569347;248;24086;-79
2024/01/15 08:01:56;;;;;;;3.73;2.10;;;0.60;99.90;-0.40;96943;;;;569528;248;24082;-80
2024/01/15 08:04:24;;;;;;;2.83;2.17;;;0.70;99.90;-0.30;96936;;;;569692;248;24131;-77
2024/01/15 08:06:54;;;;;;;3.00;1.60;;;0.80;99.90;-0.30;96930;;;;569664;248;24081;-78
2024/01/15 08:09:23;;;;;;;2.43;2.07;;;0.80;99.90;-0.30;96935;;;;569050;248;24111;-77
2024/01/15 08:11:47;;;;;;;2.00;1.27;;;0.80;99.90;-0.30;96921;;;;569230;248;24102;-78
2024/01/15 08:14:19;;;;;;;0.70;0.70;;;0.80;99.90;-0.30;96924;;;;569560;248;24106;-78
2024/01/15 08:16:44;;;;;;;1.30;1.20;;;0.90;99.90;-0.20;96922;;;;569203;248;24241;-79
2024/01/15 08:19:16;;;;;;;0.80;0.80;;;0.90;99.90;0.00;96931;;;;569150;248;25118;-80
2024/01/15 08:21:40;;;;;;;0.67;0.67;;;1.00;99.90;0.10;96929;;;;568596;248;24143;-79
2024/01/15 08:24:07;;;;;;;2.83;1.00;;;1.20;99.90;0.20;96923;;;;569163;248;24111;-78
2024/01/15 08:26:36;;;;;;;3.20;1.43;;;1.30;99.90;0.20;96916;;;;568784;248;24116;-77
2024/01/15 08:29:04;;;;;;;1.83;1.17;;;1.30;99.90;0.10;96923;;;;568509;248;24146;-79
2024/01/15 08:31:32;;;;;;;0.83;0.80;;;1.30;99.90;0.00;96920;;;;568973;248;24123;-79
2024/01/15 08:34:01;;;;;;;2.30;0.83;;;1.20;99.90;0.00;96913;;;;568994;248;24099;-79
2024/01/15 08:36:34;;;;;;;0.30;0.30;;;1.10;99.90;-0.10;96917;;;;569152;248;24098;-79
2024/01/15 08:39:00;;;;;;;0.70;0.70;;;1.00;99.90;-0.20;96925;;;;569194;248;24103;-79
2024/01/15 08:41:28;;;;;;;0.93;0.93;;;0.90;99.90;-0.10;96929;;;;569448;248;24098;-79
2024/01/15 08:43:59;;;;;;;0.90;0.90;;;1.00;99.90;0.10;96921;;;;578313;247;24071;-78
2024/01/15 08:46:24;;;;;;;1.70;1.60;;;1.10;99.90;0.30;96910;;;;569239;248;24153;-79
2024/01/15 08:48:52;;;;;;;1.53;0.80;;;1.50;99.90;0.40;96918;;;;569688;248;24111;-79
2024/01/15 08:51:20;;;;;;;1.33;1.30;;;1.40;99.90;0.50;96922;;;;569739;246;24084;-80
2024/01/15 08:53:48;;;;;;;0.70;0.70;;;1.60;99.90;0.60;96921;;;;570631;248;24145;-79
2024/01/15 08:56:16;;;;;;;1.23;1.20;;;1.70;99.90;0.90;96925;;;;570425;248;24090;-80
2024/01/15 08:58:45;;;;;;;3.37;1.63;;;2.00;99.90;1.20;96920;;;;570323;248;25159;-81
2024/01/15 09:01:16;;;;;;;1.43;0.97;;;2.20;99.90;1.30;96925;;;;569926;248;24097;-78
2024/01/15 09:03:43;;;;;;;1.37;1.00;;;2.40;99.90;1.40;96920;;;;572389;248;24105;-79
2024/01/15 09:06:10;;;;;;;0.90;0.90;;;2.50;99.90;1.40;96915;;;;569675;248;24089;-78
2024/01/15 09:08:36;;;;;;;0.53;0.53;;;2.60;99.90;1.50;96915;;;;569635;248;24112;-79
2024/01/15 09:11:03;;;;;;;4.60;0.90;;;2.60;99.90;1.70;96911;;;;572634;248;24125;-79
2024/01/15 09:13:31;;;;;;;0.63;0.63;;;2.70;99.90;1.80;96904;;;;569745;248;24108;-78
2024/01/15 09:15:59;;;;;;;0.93;0.90;;;2.90;99.90;2.10;96911;;;;569596;248;24155;-78
2024/01/15 09:18:27;;;;;;;0.70;0.70;;;3.10;99.90;2.20;96906;;;;569325;248;24086;-77
2024/01/15 09:20:55;;;;;;;2.60;1.10;;;3.30;99.90;2.30;96902;;;;569066;248;24094;-77
2024/01/15 09:23:23;;;;;;;2.43;1.20;;;3.30;99.90;2.10;96893;;;;569049;248;24094;-77
2024/01/15 09:25:52;;;;;;;1.63;0.70;;;3.30;99.90;1.80;96888;;;;569201;244;24194;-78
2024/01/15 09:28:19;;;;;;;1.57;1.17;;;3.10;99.90;1.70;96900;;;;568968;248;24082;-80
2024/01/15 09:30:47;;;;;;;1.37;1.00;;;2.90;99.90;1.50;96903;;;;569001;248;24105;-79
2024/01/15 09:33:14;;;;;;;0.60;0.60;;;2.70;99.90;1.40;96901;;;;569029;248;24130;-79
2024/01/15 09:35:42;;;;;;;0.77;0.77;;;2.60;99.90;1.50;96895;;;;569035;248;24072;-78
2024/01/15 09:38:10;;;;;;;1.17;0.97;;;2.60;99.90;1.40;96899;;;;569019;248;24077;-78
2024/01/15 09:40:41;;;;;;;1.67;1.23;;;2.50;99.90;1.20;96888;;;;569322;248;24189;-76
2024/01/15 09:43:07;;;;;;;1.67;0.93;;;2.30;99.90;1.10;96884;;;;568946;248;24176;-78
2024/01/15 09:45:37;;;;;;;0.30;0.30;;;2.20;99.90;0.80;96877;;;;577681;248;24111;-81
2024/01/15 09:48:09;;;;;;;1.27;0.60;;;2.10;99.90;0.80;96884;;;;569149;248;24098;-77
2024/01/15 09:50:33;;;;;;;0.93;0.93;;;2.00;99.90;0.80;96873;;;;577301;248;24106;-78
2024/01/15 09:53:04;;;;;;;0.33;0.33;;;1.90;99.90;0.80;96862;;;;569256;248;24209;-75
2024/01/15 09:55:29;;;;;;;7.17;0.90;;;1.90;99.90;0.80;96872;;;;569165;248;24102;-77
2024/01/15 09:58:01;;;;;;;0.67;0.43;;;1.90;99.90;0.90;96860;;;;568680;248;24098;-78
2024/01/15 10:00:28;;;;;;;1.23;0.77;;;2.00;99.90;1.20;96874;;;;568807;248;24234;-81
2024/01/15 10:02:56;;;;;;;1.67;0.80;;;2.20;99.90;1.50;96861;;;;568764;246;24095;-77
2024/01/15 10:05:21;;;;;;;0.97;0.70;;;2.50;99.90;1.70;96861;;;;570028;248;24096;-77
2024/01/15 10:07:52;;;;;;;0.77;0.77;;;2.90;99.90;1.90;96870;;;;569833;248;24114;-78
2024/01/15 10:10:24;;;;;;;0.60;0.53;;;2.90;99.90;1.90;96864;;;;570016;248;24102;-77
2024/01/15 10:12:48;;;;;;;0.83;0.83;;;3.00;99.90;2.00;96872;;;;572717;248;24105;-79
2024/01/15 10:15:17;;;;;;;1.50;0.70;;;3.20;99.90;2.20;96840;;;;569461;248;24124;-78
2024/01/15 10:17:44;;;;;;;0.40;0.40;;;3.20;99.90;2.20;96858;;;;569785;248;24172;-77
2024/01/15 10:20:12;;;;;;;1.33;0.67;;;3.30;99.90;2.10;96856;;;;569845;248;24098;-78
2024/01/15 10:22:47;;;;;;;0.90;0.60;;;3.30;99.90;1.90;96867;;;;569587;248;24097;-77
2024/01/15 10:25:14;;;;;;;3.47;0.63;;;3.10;99.90;1.80;96861;;;;569423;248;24164;-77
2024/01/15 10:27:46;;;;;;;3.40;0.83;;;2.90;99.90;1.70;96856;;;;569217;248;24128;-78
2024/01/15 10:30:13;;;;;;;1.17;0.63;;;2.80;99.90;1.70;96867;;;;568960;248;24102;-78
2024/01/15 10:32:38;;;;;;;1.40;0.40;;;2.70;99.90;1.70;96855;;;;568896;248;24112;-78
2024/01/15 10:35:10;;;;;;;1.03;0.60;;;2.70;99.90;1.70;96860;;;;569284;248;24130;-78
2024/01/15 10:37:37;;;;;;;1.57;0.80;;;2.80;99.90;1.70;96860;;;;577427;248;24107;-78
2024/01/15 10:40:07;;;;;;;0.80;0.80;;;2.80;99.90;1.80;96858;;;;568945;248;24117;-76
2024/01/15 10:42:30;;;;;;;4.07;1.57;;;2.80;99.90;1.90;96864;;;;568887;248;24104;-81
2024/01/15 10:44:58;;;;;;;4.43;1.40;;;2.90;99.90;2.10;96850;;;;568643;248;24107;-78
2024/01/15 10:47:29;;;;;;;0.60;0.40;;;3.10;99.90;2.40;96847;;;;571598;248;24232;-78
2024/01/15 10:49:54;;;;;;;1.57;0.40;;;3.30;99.90;2.60;96865;;;;576941;248;24128;-80
2024/01/15 10:52:27;;;;;;;6.53;0.60;;;3.60;99.90;2.50;96865;;;;568712;248;24114;-78
2024/01/15 10:54:51;;;;;;;3.23;0.80;;;3.60;99.90;2.30;96860;;;;568241;248;24096;-79
2024/01/15 10:57:22;;;;;;;0.57;0.57;;;3.40;99.90;2.10;96870;;;;568859;248;24103;-80
2024/01/15 10:59:46;;;;;;;1.50;0.80;;;3.30;99.90;1.90;96868;;;;568351;248;24139;-78
2024/01/15 11:02:18;;;;;;;3.20;1.10;;;3.00;99.90;1.80;96862;;;;568612;248;24107;-76
2024/01/15 11:04:43;;;;;;;9.13;1.17;;;2.80;99.90;1.70;96858;;;;577067;248;24114;-82
2024/01/15 11:07:12;;;;;;;2.83;1.00;;;2.60;99.90;1.50;96848;;;;568684;248;24098;-78
2024/01/15 11:09:40;;;;;;;1.93;0.97;;;2.60;99.90;1.50;96845;;;;577562;248;24107;-81
2024/01/15 11:12:10;;;;;;;0.70;0.70;;;2.60;99.90;1.70;96852;;;;577652;247;24137;-80
2024/01/15 11:14:45;;;;;;;1.07;1.07;;;2.80;99.90;1.80;96852;;;;572109;247;24100;-79
2024/01/15 11:17:14;;;;;;;0.50;0.50;;;2.80;99.90;1.70;96855;;;;569791;248;24159;-78
2024/01/15 11:19:53;;;;;;;0.60;0.60;;;2.80;99.90;1.50;96856;;;;569238;248;24109;-79
2024/01/15 11:22:33;;;;;;;3.40;0.87;;;2.70;99.90;1.20;96840;;;;569811;248;24091;-80
2024/01/15 11:24:58;;;;;;;0.60;0.60;;;2.40;99.90;1.00;96841;;;;569885;248;24134;-79
2024/01/15 11:27:42;;;;;;;10.93;0.60;;;2.10;99.90;0.70;96839;;;;569130;248;24171;-77
2024/01/15 11:30:10;;;;;;;2.73;0.70;;;1.90;99.90;0.60;96833;;;;569187;248;24093;-77
2024/01/15 11:32:40;;;;;;;1.73;0.67;;;1.70;99.90;0.50;96815;;;;568931;248;24099;-79
2024/01/15 11:35:08;;;;;;;0.60;0.60;;;1.60;99.90;0.40;96821;;;;568707;248;24197;-80